Time;durP1;ratioP1;P1;durP2;ratioP2;P2;SDS_P1;SDS_P2;PMS_P1;PMS_P2;Temp;Humidity;BMP_temperature;BMP_pressure;BME280_temperature;BME280_humidity;BME280_pressure;Samples;Min_cycle;Max_cycle;Signal;HPM_P1;HPM_P2
2023/05/01 00:00:08;;;;;;;2.58;1.58;;;14.30;99.90;;;;;;5032111;28;20042;-53
2023/05/01 00:02:34;;;;;;;2.80;1.92;;;14.30;99.90;;;;;;5036402;28;20021;-53
2023/05/01 00:05:00;;;;;;;2.08;1.40;;;14.30;99.90;;;;;;5034408;28;20037;-53
2023/05/01 00:07:29;;;;;;;1.52;1.23;;;14.20;99.90;;;;;;5048588;28;20037;-53
2023/05/01 00:09:56;;;;;;;2.78;1.85;;;14.10;99.90;;;;;;5018666;28;20120;-52
2023/05/01 00:12:21;;;;;;;2.55;1.85;;;14.10;99.90;;;;;;5038177;28;20025;-53
2023/05/01 00:14:47;;;;;;;2.08;1.50;;;14.10;99.90;;;;;;5026915;28;20437;-53
2023/05/01 00:17:13;;;;;;;1.95;1.33;;;14.00;99.90;;;;;;5040184;28;20125;-53
2023/05/01 00:19:39;;;;;;;2.65;1.85;;;13.90;99.90;;;;;;5036389;28;20029;-54
2023/05/01 00:22:05;;;;;;;2.25;1.30;;;14.00;99.90;;;;;;5036448;28;20033;-53
2023/05/01 00:24:31;;;;;;;1.60;1.33;;;13.90;99.90;;;;;;5035006;28;20053;-53
2023/05/01 00:26:57;;;;;;;3.08;1.40;;;13.70;99.90;;;;;;5032909;28;20076;-54
2023/05/01 00:29:22;;;;;;;3.10;2.10;;;13.80;99.90;;;;;;5040243;28;20065;-53
2023/05/01 00:31:48;;;;;;;2.50;1.67;;;13.90;99.90;;;;;;5039605;28;20029;-53
2023/05/01 00:34:14;;;;;;;1.75;1.33;;;13.90;99.90;;;;;;5053704;28;20405;-53
2023/05/01 00:36:39;;;;;;;2.38;1.60;;;13.90;99.90;;;;;;5040647;28;20041;-53
2023/05/01 00:39:06;;;;;;;1.73;1.13;;;14.00;99.90;;;;;;5038457;28;20112;-53
2023/05/01 00:41:33;;;;;;;2.22;1.77;;;13.90;99.90;;;;;;5038134;28;20473;-53
2023/05/01 00:43:59;;;;;;;2.00;1.65;;;13.80;99.90;;;;;;5040329;28;20064;-53
2023/05/01 00:46:25;;;;;;;1.73;1.25;;;13.70;99.90;;;;;;5039661;28;20076;-53
2023/05/01 00:48:52;;;;;;;2.53;1.70;;;13.70;99.90;;;;;;5040379;28;20037;-54
2023/05/01 00:51:19;;;;;;;2.40;2.20;;;13.70;99.90;;;;;;5041133;28;20041;-53
2023/05/01 00:53:45;;;;;;;1.85;1.20;;;13.60;99.90;;;;;;5037806;28;20025;-53
2023/05/01 00:56:11;;;;;;;1.95;1.42;;;13.60;99.90;;;;;;5044337;28;20042;-53
2023/05/01 00:58:37;;;;;;;1.75;1.42;;;13.70;99.90;;;;;;5040686;28;20098;-53
2023/05/01 01:01:08;;;;;;;3.33;1.45;;;13.70;99.90;;;;;;5042102;28;20465;-53
2023/05/01 01:03:34;;;;;;;2.42;1.58;;;13.60;99.90;;;;;;5038361;28;20109;-53
2023/05/01 01:06:09;;;;;;;2.63;1.40;;;13.60;99.90;;;;;;5036138;28;20124;-53
2023/05/01 01:08:42;;;;;;;1.40;1.20;;;13.60;99.90;;;;;;5038849;28;20040;-53
2023/05/01 01:11:31;;;;;;;2.72;1.80;;;13.60;99.90;;;;;;5036691;28;20083;-53
2023/05/01 01:14:20;;;;;;;1.48;1.25;;;13.50;99.90;;;;;;5037349;28;20068;-53
2023/05/01 01:17:02;;;;;;;1.73;1.50;;;13.50;99.90;;;;;;5038654;28;20026;-53
2023/05/01 01:19:47;;;;;;;1.75;1.30;;;;;;;;;;5039745;28;20041;-53
2023/05/01 01:22:19;;;;;;;2.05;1.17;;;13.50;99.90;;;;;;5042306;28;20124;-53
2023/05/01 01:24:58;;;;;;;2.72;1.80;;;13.60;99.90;;;;;;5038102;28;20072;-53
2023/05/01 01:27:53;;;;;;;5.13;3.58;;;13.60;99.90;;;;;;5038078;28;20042;-52
2023/05/01 01:30:51;;;;;;;2.95;1.83;;;13.50;99.90;;;;;;5040102;28;20464;-52
2023/05/01 01:33:32;;;;;;;2.22;1.63;;;13.50;99.90;;;;;;5034474;28;20091;-53
2023/05/01 01:36:06;;;;;;;2.03;1.75;;;13.60;99.90;;;;;;5042423;28;20145;-53
2023/05/01 01:39:10;;;;;;;2.92;1.70;;;13.60;99.90;;;;;;5052346;28;20037;-53
2023/05/01 01:41:38;;;;;;;1.50;1.40;;;13.50;99.90;;;;;;5035106;28;20032;-52
2023/05/01 01:44:20;;;;;;;2.78;1.52;;;13.50;99.90;;;;;;5039039;28;20038;-53
2023/05/01 01:46:49;;;;;;;1.05;0.95;;;13.50;99.90;;;;;;5037738;28;20176;-53
2023/05/01 01:49:20;;;;;;;2.63;1.20;;;13.40;99.90;;;;;;5036878;28;20041;-53
2023/05/01 01:51:47;;;;;;;2.23;1.53;;;13.30;99.90;;;;;;5046095;28;20120;-52
2023/05/01 01:54:15;;;;;;;4.32;2.03;;;13.20;99.90;;;;;;5045562;28;20030;-53
2023/05/01 01:56:42;;;;;;;2.97;1.73;;;13.30;99.90;;;;;;5035695;28;20473;-53
2023/05/01 01:59:09;;;;;;;2.00;1.60;;;13.30;99.90;;;;;;5038584;28;20061;-53
2023/05/01 02:01:38;;;;;;;1.77;1.30;;;13.30;99.90;;;;;;5053931;28;20047;-53
2023/05/01 02:04:06;;;;;;;5.75;1.75;;;13.30;99.90;;;;;;5038842;28;20029;-53
2023/05/01 02:06:34;;;;;;;2.25;1.73;;;13.30;99.90;;;;;;5036666;28;20049;-53
2023/05/01 02:09:01;;;;;;;2.70;1.35;;;13.20;99.90;;;;;;5036669;28;20133;-52
2023/05/01 02:11:29;;;;;;;2.05;1.60;;;;;;;;;;5036198;28;20461;-53
2023/05/01 02:13:56;;;;;;;1.98;1.30;;;13.00;99.90;;;;;;5034950;28;20038;-52
2023/05/01 02:16:24;;;;;;;1.65;1.45;;;12.70;99.90;;;;;;5052003;28;20190;-53
2023/05/01 02:18:52;;;;;;;3.20;1.88;;;12.90;99.90;;;;;;5032123;28;20429;-54
2023/05/01 02:21:18;;;;;;;2.78;1.40;;;13.00;99.90;;;;;;5037842;28;20034;-53
2023/05/01 02:23:44;;;;;;;2.15;1.33;;;13.00;99.90;;;;;;5035894;28;20073;-53
2023/05/01 02:26:13;;;;;;;2.20;1.77;;;;;;;;;;5036564;28;20079;-53
2023/05/01 02:28:40;;;;;;;1.67;1.27;;;12.60;99.90;;;;;;5035173;28;20491;-53
2023/05/01 02:31:05;;;;;;;2.15;1.67;;;12.70;99.90;;;;;;5037648;28;20037;-53
2023/05/01 02:33:31;;;;;;;1.85;1.45;;;12.80;99.90;;;;;;5037709;28;20083;-53
2023/05/01 02:35:57;;;;;;;1.90;1.45;;;12.60;99.90;;;;;;5035595;28;20153;-53
2023/05/01 02:38:23;;;;;;;2.92;2.13;;;12.60;99.90;;;;;;5050302;28;20049;-53
2023/05/01 02:40:56;;;;;;;2.47;1.70;;;12.60;99.90;;;;;;5036217;28;20025;-53
2023/05/01 02:43:23;;;;;;;2.22;1.63;;;12.70;99.90;;;;;;5034383;28;20033;-53
2023/05/01 02:45:51;;;;;;;1.65;1.30;;;12.60;99.90;;;;;;5034615;28;20037;-53
2023/05/01 02:48:20;;;;;;;3.88;1.65;;;12.60;99.90;;;;;;5032464;28;20041;-54
2023/05/01 02:50:48;;;;;;;6.05;3.33;;;12.60;99.90;;;;;;5033454;28;20032;-53
2023/05/01 02:53:15;;;;;;;3.30;1.98;;;12.70;99.90;;;;;;5034713;28;20496;-52
2023/05/01 02:55:44;;;;;;;3.75;2.80;;;12.70;99.90;;;;;;5036574;28;20029;-53
2023/05/01 02:58:16;;;;;;;2.58;1.98;;;12.80;99.90;;;;;;5042330;28;20044;-53
2023/05/01 03:00:43;;;;;;;4.03;2.55;;;12.90;99.90;;;;;;5037398;28;20044;-53
2023/05/01 03:03:09;;;;;;;3.75;2.03;;;12.90;99.90;;;;;;5035626;28;20041;-53
2023/05/01 03:05:35;;;;;;;3.33;2.05;;;13.00;99.90;;;;;;5034086;28;20069;-53
2023/05/01 03:08:01;;;;;;;3.80;1.67;;;13.10;99.90;;;;;;5034084;28;20052;-53
2023/05/01 03:10:26;;;;;;;2.33;1.88;;;13.20;99.90;;;;;;5039062;28;20114;-52
2023/05/01 03:12:52;;;;;;;1.90;1.70;;;13.10;99.90;;;;;;5031524;28;20053;-53
2023/05/01 03:15:18;;;;;;;3.25;1.85;;;13.10;99.90;;;;;;5033768;28;20022;-53
2023/05/01 03:17:43;;;;;;;3.58;2.13;;;13.00;99.90;;;;;;5034261;28;20041;-53
2023/05/01 03:20:10;;;;;;;2.90;2.33;;;13.00;99.90;;;;;;5037215;28;20120;-52
2023/05/01 03:22:35;;;;;;;2.90;2.33;;;13.00;99.90;;;;;;5006813;28;20042;-53
2023/05/01 03:25:03;;;;;;;4.07;2.42;;;13.00;99.90;;;;;;5033938;28;20045;-52
2023/05/01 03:27:29;;;;;;;2.00;1.70;;;13.00;99.90;;;;;;5047757;28;20037;-53
2023/05/01 03:29:55;;;;;;;2.97;1.85;;;12.90;99.90;;;;;;5038106;28;20038;-53
2023/05/01 03:32:21;;;;;;;3.53;2.25;;;12.90;99.90;;;;;;5037613;28;20370;-53
2023/05/01 03:34:47;;;;;;;2.72;1.98;;;13.00;99.90;;;;;;5045306;28;20036;-53
2023/05/01 03:37:14;;;;;;;2.47;1.98;;;12.90;99.90;;;;;;5033360;28;20038;-53
2023/05/01 03:39:40;;;;;;;1.70;1.60;;;12.70;99.90;;;;;;5036795;28;20442;-52
2023/05/01 03:42:06;;;;;;;2.58;1.98;;;12.80;99.90;;;;;;5034076;28;20037;-52
2023/05/01 03:44:31;;;;;;;3.47;2.03;;;12.70;99.90;;;;;;5034671;28;20435;-53
2023/05/01 03:46:57;;;;;;;2.80;1.90;;;12.70;99.90;;;;;;5033694;28;20044;-53
2023/05/01 03:49:23;;;;;;;2.47;1.88;;;12.70;99.90;;;;;;5048905;28;20588;-53
2023/05/01 03:51:49;;;;;;;1.98;1.40;;;12.80;99.90;;;;;;5033367;28;20036;-53
2023/05/01 03:54:15;;;;;;;5.45;2.28;;;12.80;99.90;;;;;;5034434;28;20037;-53
2023/05/01 03:56:40;;;;;;;2.45;1.80;;;12.90;99.90;;;;;;5030432;28;20048;-53
2023/05/01 03:59:06;;;;;;;4.05;2.03;;;12.90;99.90;;;;;;5033963;28;20029;-53
2023/05/01 04:01:32;;;;;;;2.45;2.22;;;12.80;99.90;;;;;;5047182;28;20045;-54
2023/05/01 04:03:58;;;;;;;3.50;2.40;;;12.80;99.90;;;;;;5038036;28;20481;-53
2023/05/01 04:06:25;;;;;;;3.28;2.00;;;12.90;99.90;;;;;;5041544;28;20505;-53
2023/05/01 04:08:50;;;;;;;2.70;2.03;;;13.00;99.90;;;;;;5035557;28;20153;-53
2023/05/01 04:11:16;;;;;;;5.68;2.13;;;13.00;99.90;;;;;;5054435;28;20485;-53
2023/05/01 04:13:42;;;;;;;3.60;2.00;;;13.00;99.90;;;;;;5055665;28;20090;-53
2023/05/01 04:16:07;;;;;;;3.05;2.20;;;13.10;99.90;;;;;;5056546;28;20488;-53
2023/05/01 04:18:33;;;;;;;4.32;3.10;;;13.20;99.90;;;;;;5011861;28;20238;-53
2023/05/01 04:20:59;;;;;;;4.40;3.00;;;13.20;99.90;;;;;;5054144;28;20044;-53
2023/05/01 04:23:24;;;;;;;4.70;2.97;;;13.30;99.90;;;;;;5057758;28;20035;-53
2023/05/01 04:25:50;;;;;;;3.13;2.30;;;13.40;99.90;;;;;;5056584;28;20052;-53
2023/05/01 04:28:16;;;;;;;5.25;3.22;;;13.40;99.90;;;;;;5054257;28;20439;-53
2023/05/01 04:30:41;;;;;;;2.20;2.00;;;13.50;99.90;;;;;;5057105;28;20460;-53
2023/05/01 04:33:10;;;;;;;4.10;3.05;;;13.50;99.90;;;;;;5057200;28;20400;-53
2023/05/01 04:35:38;;;;;;;4.35;2.95;;;13.50;99.90;;;;;;5073526;28;20036;-54
2023/05/01 04:38:08;;;;;;;4.43;2.83;;;13.60;99.90;;;;;;5053191;28;20049;-53
2023/05/01 04:40:34;;;;;;;4.22;2.45;;;13.70;99.90;;;;;;5055950;28;20029;-54
2023/05/01 04:43:00;;;;;;;4.05;2.85;;;13.80;99.90;;;;;;5041872;28;20068;-53
2023/05/01 04:45:26;;;;;;;4.63;2.78;;;13.80;99.90;;;;;;5036468;28;20057;-53
2023/05/01 04:47:51;;;;;;;5.03;2.90;;;13.90;99.90;;;;;;5038396;28;20040;-53
2023/05/01 04:50:17;;;;;;;3.55;2.95;;;13.80;99.90;;;;;;5038170;28;20032;-53
2023/05/01 04:52:43;;;;;;;5.30;2.85;;;13.80;99.90;;;;;;5039287;28;20026;-53
2023/05/01 04:55:09;;;;;;;3.50;2.28;;;13.80;99.90;;;;;;5035371;28;20029;-53
2023/05/01 04:57:35;;;;;;;3.53;2.60;;;13.70;99.90;;;;;;5039952;28;20034;-54
2023/05/01 05:00:02;;;;;;;5.18;2.95;;;13.80;99.90;;;;;;5036275;28;20025;-54
2023/05/01 05:02:27;;;;;;;4.78;2.92;;;13.90;99.90;;;;;;5049793;28;20041;-54
2023/05/01 05:04:53;;;;;;;3.17;2.70;;;14.20;99.90;;;;;;5036167;28;20060;-53
2023/05/01 05:07:20;;;;;;;8.23;3.17;;;14.20;99.90;;;;;;5032447;28;20604;-53
2023/05/01 05:09:46;;;;;;;2.95;2.55;;;14.20;99.90;;;;;;5018274;28;20084;-53
2023/05/01 05:12:13;;;;;;;3.25;2.42;;;14.40;99.90;;;;;;5030547;28;20041;-54
2023/05/01 05:14:42;;;;;;;4.25;2.63;;;14.40;99.90;;;;;;5013632;28;20686;-53
2023/05/01 05:17:08;;;;;;;4.35;3.10;;;14.40;99.90;;;;;;5017048;28;20037;-54
2023/05/01 05:19:34;;;;;;;5.28;3.03;;;14.60;99.90;;;;;;5013174;28;20469;-53
2023/05/01 05:22:03;;;;;;;4.60;3.05;;;14.80;99.90;;;;;;5017962;28;20052;-53
2023/05/01 05:24:29;;;;;;;4.38;2.75;;;;;;;;;;5014784;28;20049;-56
2023/05/01 05:26:55;;;;;;;3.67;2.75;;;;;;;;;;5013196;28;20053;-53
2023/05/01 05:29:21;;;;;;;4.07;2.75;;;15.30;99.90;;;;;;5014604;28;20069;-55
2023/05/01 05:31:46;;;;;;;3.15;2.47;;;15.20;99.90;;;;;;5013116;28;20494;-56
2023/05/01 05:34:13;;;;;;;3.50;2.42;;;15.40;99.90;;;;;;5032959;28;20489;-54
2023/05/01 05:36:39;;;;;;;3.40;2.45;;;;;;;;;;5033770;28;20119;-55
2023/05/01 05:39:05;;;;;;;4.18;2.63;;;15.50;99.90;;;;;;5036531;28;20036;-56
2023/05/01 05:41:30;;;;;;;5.03;3.10;;;15.60;99.90;;;;;;5032350;28;20037;-56
2023/05/01 05:43:56;;;;;;;3.53;2.60;;;15.60;99.90;;;;;;5034294;28;20485;-55
2023/05/01 05:46:22;;;;;;;2.75;2.40;;;15.70;99.90;;;;;;5038629;28;20036;-56
2023/05/01 05:48:47;;;;;;;3.63;2.58;;;15.70;99.90;;;;;;5039682;28;20032;-54
2023/05/01 05:51:13;;;;;;;5.53;2.72;;;15.80;99.90;;;;;;5039454;28;20465;-55
2023/05/01 05:53:39;;;;;;;4.20;2.53;;;15.80;99.90;;;;;;5036255;28;20127;-54
2023/05/01 05:56:05;;;;;;;8.10;2.90;;;16.00;99.90;;;;;;5039066;28;20037;-56
2023/05/01 05:58:31;;;;;;;3.40;2.58;;;15.70;99.90;;;;;;5017389;28;20493;-55
2023/05/01 06:00:56;;;;;;;4.97;3.30;;;15.80;99.90;;;;;;5051582;28;20045;-55
2023/05/01 06:03:22;;;;;;;7.18;3.90;;;;;;;;;;5036733;28;20120;-54
2023/05/01 06:05:48;;;;;;;7.45;4.70;;;16.30;99.90;;;;;;5036469;28;20048;-56
2023/05/01 06:08:14;;;;;;;5.97;3.47;;;;;;;;;;5068860;28;20042;-55
2023/05/01 06:10:43;;;;;;;2.83;2.20;;;16.40;99.90;;;;;;5037021;28;20039;-55
2023/05/01 06:13:10;;;;;;;3.67;2.70;;;16.50;99.90;;;;;;5049203;28;20175;-57
2023/05/01 06:15:40;;;;;;;3.55;2.25;;;16.30;99.90;;;;;;5029970;28;20053;-55
2023/05/01 06:18:06;;;;;;;4.68;2.80;;;16.40;99.90;;;;;;5034843;28;20393;-55
2023/05/01 06:20:32;;;;;;;4.47;3.00;;;16.10;99.90;;;;;;5035114;28;20469;-55
2023/05/01 06:22:57;;;;;;;3.42;2.42;;;15.90;99.90;;;;;;5034816;28;20041;-55
2023/05/01 06:25:23;;;;;;;4.07;2.55;;;16.10;99.90;;;;;;5035317;28;20049;-55
2023/05/01 06:27:50;;;;;;;6.35;3.00;;;16.00;99.90;;;;;;5033916;28;20071;-55
2023/05/01 06:30:18;;;;;;;3.53;2.40;;;16.20;99.90;;;;;;5036469;28;20091;-54
2023/05/01 06:32:45;;;;;;;4.38;2.90;;;;;;;;;;5034272;28;20033;-54
2023/05/01 06:35:11;;;;;;;3.95;2.42;;;16.90;99.90;;;;;;5034910;28;20029;-56
2023/05/01 06:37:37;;;;;;;3.50;2.53;;;;;;;;;;5036118;28;20477;-55
2023/05/01 06:40:06;;;;;;;2.80;2.28;;;17.20;99.90;;;;;;5037956;28;20040;-54
2023/05/01 06:42:32;;;;;;;3.72;2.20;;;17.10;99.90;;;;;;5035009;28;20049;-55
2023/05/01 06:44:57;;;;;;;3.90;2.45;;;17.40;99.90;;;;;;5032428;28;20075;-56
2023/05/01 06:47:23;;;;;;;2.95;2.42;;;;;;;;;;5034931;28;20025;-54
2023/05/01 06:49:49;;;;;;;3.15;2.00;;;;;;;;;;5034122;28;20033;-52
2023/05/01 06:52:15;;;;;;;3.17;2.35;;;;;;;;;;5038349;28;20107;-56
2023/05/01 06:54:41;;;;;;;3.30;2.35;;;;;;;;;;5052756;28;20142;-53
2023/05/01 06:57:07;;;;;;;2.78;1.80;;;;;;;;;;5033844;28;20434;-52
2023/05/01 06:59:33;;;;;;;2.78;1.92;;;;;;;;;;5035450;28;20030;-53
2023/05/01 07:01:59;;;;;;;2.70;1.90;;;18.40;99.90;;;;;;5036843;28;20120;-54
2023/05/01 07:04:25;;;;;;;2.63;2.00;;;18.50;99.90;;;;;;5038424;28;20049;-52
2023/05/01 07:06:50;;;;;;;3.90;2.08;;;18.60;99.90;;;;;;5034353;28;20037;-55
2023/05/01 07:09:16;;;;;;;2.72;1.80;;;18.80;99.90;;;;;;5050381;28;20507;-54
2023/05/01 07:11:42;;;;;;;3.22;2.20;;;19.00;99.90;;;;;;5035101;28;20068;-53
2023/05/01 07:14:08;;;;;;;3.55;2.45;;;19.20;99.90;;;;;;5034655;28;20500;-55
2023/05/01 07:16:33;;;;;;;3.80;2.28;;;19.10;99.90;;;;;;5035339;28;20070;-55
2023/05/01 07:18:59;;;;;;;2.10;1.80;;;19.10;99.90;;;;;;5034982;28;20043;-55
2023/05/01 07:21:25;;;;;;;1.98;1.75;;;19.30;99.90;;;;;;5035542;28;20087;-55
2023/05/01 07:23:50;;;;;;;3.13;2.17;;;18.90;99.90;;;;;;5036871;28;20045;-53
2023/05/01 07:26:16;;;;;;;3.00;2.20;;;18.90;99.90;;;;;;5035447;28;20164;-54
2023/05/01 07:28:42;;;;;;;2.38;1.83;;;19.20;99.90;;;;;;5035550;28;20036;-54
2023/05/01 07:31:09;;;;;;;2.92;2.00;;;19.20;99.90;;;;;;5038112;28;20472;-54
2023/05/01 07:33:35;;;;;;;2.40;1.83;;;19.20;99.90;;;;;;5035678;28;20048;-54
2023/05/01 07:36:03;;;;;;;4.25;2.28;;;;;;;;;;5035541;28;20033;-55
2023/05/01 07:38:29;;;;;;;3.80;2.40;;;19.60;99.90;;;;;;5034027;28;20033;-55
2023/05/01 07:40:55;;;;;;;2.15;1.75;;;19.50;99.90;;;;;;5030859;28;20380;-55
2023/05/01 07:43:21;;;;;;;2.42;1.65;;;19.70;99.90;;;;;;5039037;28;20032;-55
2023/05/01 07:45:59;;;;;;;3.40;2.55;;;19.70;99.90;;;;;;5033088;28;20071;-55
2023/05/01 07:48:25;;;;;;;4.13;2.38;;;19.60;99.90;;;;;;5038079;28;20098;-54
2023/05/01 07:50:51;;;;;;;2.90;2.00;;;19.80;99.90;;;;;;5050410;28;20045;-56
2023/05/01 07:53:17;;;;;;;2.55;1.88;;;19.90;99.90;;;;;;5037336;28;20532;-55
2023/05/01 07:55:43;;;;;;;2.35;1.88;;;;;;;;;;5034404;28;20108;-53
2023/05/01 07:58:09;;;;;;;3.97;2.45;;;;;;;;;;5035059;28;20032;-54
2023/05/01 08:00:35;;;;;;;2.70;2.13;;;19.60;99.90;;;;;;5035270;28;20117;-55
2023/05/01 08:03:01;;;;;;;3.60;2.30;;;19.50;99.90;;;;;;5034020;28;20053;-55
2023/05/01 08:05:26;;;;;;;4.85;3.08;;;19.70;99.90;;;;;;5031924;28;20033;-54
2023/05/01 08:07:53;;;;;;;3.60;2.22;;;;;;;;;;5044997;28;20044;-55
2023/05/01 08:10:19;;;;;;;2.55;1.80;;;;;;;;;;5034435;28;20033;-55
2023/05/01 08:12:45;;;;;;;3.95;2.20;;;;;;;;;;5031093;28;20037;-55
2023/05/01 08:15:11;;;;;;;3.40;2.45;;;20.30;99.90;;;;;;5047496;28;20088;-55
2023/05/01 08:17:37;;;;;;;2.50;1.90;;;20.40;99.90;;;;;;5038214;28;20061;-54
2023/05/01 08:20:03;;;;;;;2.70;1.70;;;20.30;99.90;;;;;;5033900;28;20061;-54
2023/05/01 08:22:29;;;;;;;3.00;2.17;;;20.30;99.90;;;;;;5048705;28;20040;-55
2023/05/01 08:24:55;;;;;;;3.30;2.40;;;20.50;99.90;;;;;;5030255;28;20132;-55
2023/05/01 08:27:20;;;;;;;2.88;2.03;;;20.70;99.90;;;;;;5034793;28;20453;-54
2023/05/01 08:29:47;;;;;;;2.95;1.75;;;;;;;;;;5050864;28;20036;-55
2023/05/01 08:32:13;;;;;;;2.42;1.52;;;21.10;99.90;;;;;;5038087;28;20029;-55
2023/05/01 08:34:40;;;;;;;2.95;2.08;;;;;;;;;;5035851;28;20024;-54
2023/05/01 08:37:06;;;;;;;3.08;1.80;;;;;;;;;;5034287;28;20032;-55
2023/05/01 08:39:31;;;;;;;3.47;1.95;;;20.90;99.90;;;;;;5033722;28;20025;-55
2023/05/01 08:41:58;;;;;;;3.22;1.90;;;21.40;99.90;;;;;;5033387;28;20496;-56
2023/05/01 08:44:28;;;;;;;3.30;2.40;;;21.60;99.90;;;;;;4999722;28;20120;-54
2023/05/01 08:47:09;;;;;;;2.95;1.92;;;;;;;;;;5030360;28;20041;-54
2023/05/01 08:49:36;;;;;;;1.50;1.37;;;;;;;;;;5032621;28;20602;-56
2023/05/01 08:52:02;;;;;;;2.42;1.55;;;;;;;;;;5038788;28;20034;-54
2023/05/01 08:54:31;;;;;;;2.35;1.80;;;;;;;;;;5003384;28;20044;-55
2023/05/01 08:57:02;;;;;;;3.40;2.00;;;;;;;;;;5034135;28;20026;-55
2023/05/01 08:59:29;;;;;;;3.08;2.05;;;;;;;;;;5034853;28;20045;-55
2023/05/01 09:01:58;;;;;;;3.17;1.70;;;22.70;99.90;;;;;;5034023;28;20065;-54
2023/05/01 09:04:25;;;;;;;3.15;2.13;;;;;;;;;;5012932;28;20041;-55
2023/05/01 09:06:53;;;;;;;3.63;2.42;;;22.90;99.90;;;;;;5035699;28;20521;-55
2023/05/01 09:09:19;;;;;;;2.65;2.25;;;23.00;99.90;;;;;;5037102;28;20037;-56
2023/05/01 09:11:45;;;;;;;2.92;2.17;;;;;;;;;;5038276;28;20021;-55
2023/05/01 09:14:11;;;;;;;4.22;1.80;;;22.50;99.90;;;;;;5002866;28;20048;-55
2023/05/01 09:16:37;;;;;;;4.00;2.42;;;;;;;;;;5036134;28;20033;-53
2023/05/01 09:19:03;;;;;;;3.33;2.15;;;;;;;;;;5036937;28;20033;-53
2023/05/01 09:21:30;;;;;;;4.47;2.25;;;23.50;99.90;;;;;;5036284;28;20078;-55
2023/05/01 09:23:57;;;;;;;2.92;1.90;;;;;;;;;;5039577;28;20524;-54
2023/05/01 09:26:23;;;;;;;3.22;2.10;;;;;;;;;;5040348;28;20071;-53
2023/05/01 09:28:50;;;;;;;3.45;2.08;;;;;;;;;;5036084;28;20040;-54
2023/05/01 09:31:27;;;;;;;3.60;2.42;;;;;;;;;;5035474;28;20057;-55
2023/05/01 09:33:57;;;;;;;2.97;2.28;;;;;;;;;;5039021;28;20037;-55
2023/05/01 09:36:24;;;;;;;3.03;2.00;;;;;;;;;;5036405;28;20021;-55
2023/05/01 09:38:50;;;;;;;2.88;1.90;;;24.90;99.90;;;;;;5036236;28;20053;-55
2023/05/01 09:41:16;;;;;;;3.25;1.88;;;;;;;;;;5039405;28;20025;-55
2023/05/01 09:43:51;;;;;;;2.92;2.00;;;25.50;99.90;;;;;;5036364;28;20029;-54
2023/05/01 09:46:17;;;;;;;3.45;2.67;;;25.20;99.90;;;;;;5036140;28;20088;-53
2023/05/01 09:49:04;;;;;;;3.45;2.08;;;;;;;;;;5034527;28;20034;-53
2023/05/01 09:51:33;;;;;;;2.83;1.58;;;25.40;99.90;;;;;;5037232;28;20459;-55
2023/05/01 09:54:03;;;;;;;4.45;2.05;;;25.30;99.90;;;;;;5038495;28;20465;-55
2023/05/01 09:56:31;;;;;;;2.05;1.83;;;25.20;99.90;;;;;;5052526;28;20044;-55
2023/05/01 09:58:59;;;;;;;3.28;2.00;;;;;;;;;;5035724;28;20052;-54
2023/05/01 10:01:38;;;;;;;2.25;1.73;;;;;;;;;;5038518;28;20036;-56
2023/05/01 10:04:04;;;;;;;3.25;2.00;;;;;;;;;;5030643;28;20079;-56
2023/05/01 10:06:30;;;;;;;2.05;1.45;;;;;;;;;;5050723;28;20099;-55
2023/05/01 10:08:56;;;;;;;1.90;1.67;;;25.20;98.60;;;;;;5035566;28;20036;-54
2023/05/01 10:11:23;;;;;;;2.28;1.58;;;;;;;;;;5036590;28;20078;-55
2023/05/01 10:14:10;;;;;;;2.50;1.70;;;;;;;;;;5031066;28;20472;-55
2023/05/01 10:16:37;;;;;;;2.55;1.75;;;26.20;99.90;;;;;;5037330;28;20036;-55
2023/05/01 10:19:04;;;;;;;2.55;1.80;;;25.90;99.90;;;;;;5054588;28;20079;-53
2023/05/01 10:21:33;;;;;;;3.08;1.73;;;;;;;;;;5052454;28;20037;-53
2023/05/01 10:24:02;;;;;;;3.13;1.80;;;;;;;;;;5057127;28;20421;-53
2023/05/01 10:26:28;;;;;;;3.65;2.10;;;;;;;;;;5055639;28;20496;-55
2023/05/01 10:28:58;;;;;;;2.22;1.55;;;;;;;;;;5053903;28;20136;-55
2023/05/01 10:31:26;;;;;;;2.55;1.50;;;;;;;;;;5052910;28;20028;-54
2023/05/01 10:33:53;;;;;;;2.08;1.42;;;27.30;97.50;;;;;;5054495;28;20604;-54
2023/05/01 10:36:31;;;;;;;2.05;1.30;;;27.10;96.90;;;;;;5055397;28;20028;-56
2023/05/01 10:38:57;;;;;;;1.63;1.27;;;26.60;96.60;;;;;;5026727;28;20037;-55
2023/05/01 10:41:57;;;;;;;1.30;1.20;;;26.60;96.50;;;;;;5052918;28;20029;-56
2023/05/01 10:44:26;;;;;;;1.50;0.98;;;26.40;96.50;;;;;;5054427;28;20067;-54
2023/05/01 10:46:52;;;;;;;1.27;1.02;;;26.60;96.70;;;;;;5054342;28;20758;-56
2023/05/01 10:49:18;;;;;;;1.23;1.00;;;26.30;96.00;;;;;;5048731;28;20037;-55
2023/05/01 10:52:10;;;;;;;1.50;1.23;;;26.40;96.10;;;;;;5036057;28;20025;-55
2023/05/01 10:54:36;;;;;;;2.03;1.05;;;26.50;96.30;;;;;;5038578;28;20067;-56
2023/05/01 10:57:02;;;;;;;1.38;1.10;;;26.20;95.60;;;;;;5031799;28;20033;-55
2023/05/01 10:59:59;;;;;;;1.73;0.93;;;26.60;94.90;;;;;;5036111;28;20083;-53
2023/05/01 11:02:25;;;;;;;1.20;1.10;;;27.00;95.60;;;;;;5032294;28;20028;-56
2023/05/01 11:04:52;;;;;;;2.47;1.25;;;26.60;94.40;;;;;;5052722;28;20033;-54
2023/05/01 11:07:19;;;;;;;1.77;1.48;;;26.20;94.50;;;;;;5036485;28;20131;-54
2023/05/01 11:10:01;;;;;;;1.65;1.30;;;26.10;94.70;;;;;;5037134;28;20072;-54
2023/05/01 11:12:45;;;;;;;2.45;1.17;;;26.20;94.30;;;;;;5034313;28;20115;-55
2023/05/01 11:15:12;;;;;;;2.47;1.48;;;26.30;95.20;;;;;;5034207;28;20068;-54
2023/05/01 11:17:41;;;;;;;1.35;1.25;;;26.60;95.20;;;;;;5032304;28;20558;-54
2023/05/01 11:20:08;;;;;;;1.70;1.20;;;26.50;94.70;;;;;;5036250;28;20037;-54
2023/05/01 11:22:35;;;;;;;2.28;1.10;;;26.00;94.20;;;;;;5035408;28;20503;-54
2023/05/01 11:25:17;;;;;;;1.17;1.05;;;25.60;95.00;;;;;;5034379;28;20045;-56
2023/05/01 11:27:51;;;;;;;2.20;1.40;;;25.80;94.60;;;;;;5033170;28;20029;-53
2023/05/01 11:30:18;;;;;;;1.85;1.27;;;26.00;95.00;;;;;;5031300;28;20022;-54
2023/05/01 11:32:45;;;;;;;2.90;1.75;;;;;;;;;;5033506;28;20104;-55
2023/05/01 11:35:29;;;;;;;1.58;1.20;;;26.50;94.20;;;;;;5035247;28;20032;-55
2023/05/01 11:37:55;;;;;;;1.55;1.10;;;;;;;;;;5038399;28;20196;-55
2023/05/01 11:40:28;;;;;;;1.00;0.95;;;26.90;93.60;;;;;;5034741;28;20025;-57
2023/05/01 11:43:04;;;;;;;1.45;1.23;;;26.40;94.00;;;;;;5018106;28;20045;-57
2023/05/01 11:45:31;;;;;;;1.88;1.33;;;26.40;94.10;;;;;;5035338;28;20029;-56
2023/05/01 11:47:57;;;;;;;1.77;1.30;;;26.10;93.80;;;;;;5032959;28;20034;-57
2023/05/01 11:50:31;;;;;;;1.48;1.08;;;26.30;93.60;;;;;;5051167;28;20104;-56
2023/05/01 11:52:57;;;;;;;2.22;1.10;;;26.00;92.90;;;;;;5031936;28;20030;-55
2023/05/01 11:55:33;;;;;;;1.33;1.10;;;26.50;93.40;;;;;;5034260;28;20028;-57
2023/05/01 11:58:00;;;;;;;1.30;1.10;;;27.00;92.20;;;;;;5038173;28;20037;-56
2023/05/01 12:00:36;;;;;;;1.67;1.25;;;26.80;93.00;;;;;;5030890;28;20044;-55
2023/05/01 12:03:11;;;;;;;3.10;1.90;;;27.30;93.60;;;;;;5031962;28;20416;-57
2023/05/01 12:05:41;;;;;;;1.48;1.00;;;27.20;93.20;;;;;;5033972;28;20037;-55
2023/05/01 12:08:21;;;;;;;2.78;1.63;;;26.90;92.90;;;;;;5036819;28;20104;-55
2023/05/01 12:10:51;;;;;;;1.67;1.20;;;26.90;92.90;;;;;;5032894;28;20482;-54
2023/05/01 12:13:17;;;;;;;1.85;1.15;;;26.80;92.90;;;;;;5034601;28;20033;-55
2023/05/01 12:15:48;;;;;;;3.40;1.80;;;27.00;92.60;;;;;;5032987;28;20025;-55
2023/05/01 12:18:16;;;;;;;1.35;1.17;;;27.20;91.80;;;;;;5034928;28;20026;-53
2023/05/01 12:20:42;;;;;;;1.27;1.08;;;;;;;;;;5033566;28;20423;-57
2023/05/01 12:23:10;;;;;;;3.00;1.20;;;27.30;90.90;;;;;;5034605;28;20523;-57
2023/05/01 12:25:38;;;;;;;0.95;0.90;;;27.30;91.50;;;;;;5035979;28;20079;-55
2023/05/01 12:28:11;;;;;;;1.33;1.23;;;;;;;;;;5039564;28;20083;-54
2023/05/01 12:30:38;;;;;;;2.10;1.15;;;;;;;;;;5036240;28;20057;-54
2023/05/01 12:33:11;;;;;;;2.75;1.00;;;;;;;;;;5035884;28;20435;-54
2023/05/01 12:35:38;;;;;;;1.13;1.00;;;;;;;;;;5038543;28;20039;-57
2023/05/01 12:38:11;;;;;;;1.02;0.93;;;;;;;;;;5040732;28;20453;-56
2023/05/01 12:40:38;;;;;;;1.20;1.00;;;;;;;;;;5039177;28;20180;-53
2023/05/01 12:43:04;;;;;;;1.65;1.25;;;;;;;;;;5039724;28;20104;-56
2023/05/01 12:45:38;;;;;;;1.05;0.90;;;;;;;;;;5034730;28;20503;-54
2023/05/01 12:48:13;;;;;;;1.58;1.00;;;26.80;90.40;;;;;;5037014;28;20033;-54
2023/05/01 12:50:39;;;;;;;2.13;1.50;;;27.00;91.20;;;;;;5036853;28;20079;-55
2023/05/01 12:53:08;;;;;;;1.08;0.98;;;26.70;90.60;;;;;;5037024;28;20056;-57
2023/05/01 12:55:45;;;;;;;1.67;1.40;;;26.80;90.40;;;;;;5039077;28;20522;-56
2023/05/01 12:58:12;;;;;;;2.33;1.17;;;27.50;91.20;;;;;;5036062;28;20052;-55
2023/05/01 13:00:48;;;;;;;1.48;1.10;;;27.30;91.10;;;;;;5035521;28;20388;-56
2023/05/01 13:03:22;;;;;;;1.45;1.10;;;27.40;91.50;;;;;;5037221;28;20481;-57
2023/05/01 13:05:59;;;;;;;1.08;0.98;;;27.50;91.40;;;;;;5034558;28;20068;-56
2023/05/01 13:08:31;;;;;;;2.15;1.33;;;26.40;91.20;;;;;;5053523;28;20528;-55
2023/05/01 13:11:08;;;;;;;0.73;0.73;;;26.40;91.00;;;;;;5034752;28;20033;-56
2023/05/01 13:13:36;;;;;;;1.17;1.08;;;26.30;91.30;;;;;;5035738;28;20025;-55